createdAt,value
2023-03-05T00:01:40.070Z,19.20
2023-03-05T00:04:16.281Z,18.80
2023-03-05T00:06:49.728Z,16.10
2023-03-05T00:09:23.692Z,20.20
2023-03-05T00:11:57.325Z,19.20
2023-03-05T00:14:31.245Z,17.20
2023-03-05T00:17:04.772Z,18.40
2023-03-05T00:19:38.421Z,20.00
2023-03-05T00:22:11.865Z,19.10
2023-03-05T00:24:45.760Z,18.60
2023-03-05T00:27:23.076Z,20.50
2023-03-05T00:29:56.540Z,15.50
2023-03-05T00:32:30.814Z,18.30
2023-03-05T00:35:04.518Z,16.60
2023-03-05T00:37:38.430Z,15.40
2023-03-05T00:40:14.529Z,16.00
2023-03-05T00:42:48.695Z,15.50
2023-03-05T00:45:22.475Z,13.20
2023-03-05T00:47:56.137Z,15.50
2023-03-05T00:50:30.738Z,14.50
2023-03-05T00:53:04.658Z,16.00
2023-03-05T00:55:38.245Z,14.60
2023-03-05T00:58:12.259Z,16.80
2023-03-05T01:00:45.683Z,14.00
2023-03-05T01:03:19.524Z,17.10
2023-03-05T01:05:53.337Z,15.70
2023-03-05T01:08:27.816Z,16.80
2023-03-05T01:11:01.405Z,13.10
2023-03-05T01:13:35.192Z,16.00
2023-03-05T01:16:09.550Z,17.10
2023-03-05T01:18:43.556Z,19.30
2023-03-05T01:21:17.048Z,17.20
2023-03-05T01:23:51.011Z,15.40
2023-03-05T01:26:24.853Z,19.30
2023-03-05T01:28:58.934Z,21.20
2023-03-05T01:31:32.603Z,15.70
2023-03-05T01:34:06.893Z,18.90
2023-03-05T01:36:42.330Z,18.30
2023-03-05T01:39:17.468Z,17.00
2023-03-05T01:41:51.156Z,17.00
2023-03-05T01:44:33.888Z,17.20
2023-03-05T01:47:08.752Z,17.70
2023-03-05T01:49:43.992Z,16.90
2023-03-05T01:52:21.375Z,15.00
2023-03-05T01:54:58.749Z,19.60
2023-03-05T01:57:36.866Z,18.80
2023-03-05T02:00:19.636Z,19.10
2023-03-05T02:02:54.557Z,20.30
2023-03-05T02:05:31.503Z,15.50
2023-03-05T02:08:08.044Z,16.60
2023-03-05T02:10:43.844Z,15.90
2023-03-05T02:13:20.096Z,19.30
2023-03-05T02:15:55.416Z,17.40
2023-03-05T02:18:29.528Z,16.50
2023-03-05T02:21:07.437Z,20.50
2023-03-05T02:23:41.844Z,16.30
2023-03-05T02:26:15.975Z,15.40
2023-03-05T02:28:54.449Z,15.40
2023-03-05T02:31:29.904Z,17.00
2023-03-05T02:34:03.482Z,15.80
2023-03-05T02:36:37.478Z,14.30
2023-03-05T02:39:11.760Z,17.00
2023-03-05T02:41:51.741Z,17.90
2023-03-05T02:44:25.691Z,17.30
2023-03-05T02:47:00.109Z,16.70
2023-03-05T02:49:34.490Z,18.40
2023-03-05T02:52:09.091Z,16.60
2023-03-05T02:54:43.146Z,16.60
2023-03-05T02:57:17.488Z,18.80
2023-03-05T02:59:51.850Z,17.30
2023-03-05T03:02:26.105Z,15.50
2023-03-05T03:05:00.607Z,19.40
2023-03-05T03:07:34.826Z,20.30
2023-03-05T03:10:10.497Z,15.00
2023-03-05T03:12:46.089Z,17.60
2023-03-05T03:15:20.315Z,25.70
2023-03-05T03:17:54.355Z,14.80
2023-03-05T03:20:28.121Z,18.20
2023-03-05T03:23:04.606Z,17.40
2023-03-05T03:25:38.986Z,16.20
2023-03-05T03:28:12.871Z,15.00
2023-03-05T03:30:46.423Z,16.40
2023-03-05T03:33:23.423Z,18.50
2023-03-05T03:35:56.615Z,15.60
2023-03-05T03:38:30.665Z,15.60
2023-03-05T03:41:06.986Z,22.60
2023-03-05T03:43:40.716Z,14.50
2023-03-05T03:46:14.338Z,15.20
2023-03-05T03:48:51.385Z,18.00
2023-03-05T03:51:25.092Z,19.00
2023-03-05T03:53:59.225Z,19.60
2023-03-05T03:56:33.386Z,18.00
2023-03-05T03:59:07.551Z,15.80
2023-03-05T04:01:41.568Z,15.80
2023-03-05T04:04:16.043Z,15.70
2023-03-05T04:06:49.610Z,15.20
2023-03-05T04:09:23.379Z,15.50
2023-03-05T04:11:57.476Z,16.60
2023-03-05T04:14:31.057Z,15.50
2023-03-05T04:17:04.713Z,14.80
2023-03-05T04:19:38.121Z,16.20
2023-03-05T04:22:14.248Z,15.60
2023-03-05T04:24:48.225Z,13.10
2023-03-05T04:27:22.080Z,15.00
2023-03-05T04:29:55.725Z,15.00
2023-03-05T04:32:30.247Z,17.40
2023-03-05T04:35:03.982Z,16.90
2023-03-05T04:37:37.540Z,16.40
2023-03-05T04:40:13.545Z,13.40
2023-03-05T04:42:48.181Z,15.90
2023-03-05T04:45:22.061Z,12.60
2023-03-05T04:47:55.652Z,15.30
2023-03-05T04:50:29.347Z,13.70
2023-03-05T04:53:04.265Z,15.20
2023-03-05T04:55:37.959Z,15.20
2023-03-05T04:58:12.007Z,13.60
2023-03-05T05:00:45.979Z,14.90
2023-03-05T05:03:19.819Z,15.40
2023-03-05T05:06:00.135Z,12.50
2023-03-05T05:08:33.674Z,14.30
2023-03-05T05:11:15.417Z,15.30
2023-03-05T05:13:49.221Z,19.70
2023-03-05T05:16:22.931Z,16.80
2023-03-05T05:18:56.604Z,13.90
2023-03-05T05:21:30.240Z,14.10
2023-03-05T05:24:03.740Z,13.40
2023-03-05T05:26:37.510Z,18.30
2023-03-05T05:29:11.300Z,15.50
2023-03-05T05:31:45.322Z,18.70
2023-03-05T05:34:19.530Z,12.90
2023-03-05T05:36:54.025Z,13.20
2023-03-05T05:39:27.928Z,19.40
2023-03-05T05:42:01.904Z,15.20
2023-03-05T05:44:35.815Z,12.70
2023-03-05T05:47:10.077Z,14.40
2023-03-05T05:49:44.329Z,14.90
2023-03-05T05:52:18.276Z,14.10
2023-03-05T05:54:51.851Z,14.20
2023-03-05T05:57:33.433Z,14.70
2023-03-05T06:00:10.887Z,13.20
2023-03-05T06:02:47.871Z,11.70
2023-03-05T06:05:21.953Z,16.30
2023-03-05T06:07:56.221Z,12.80
2023-03-05T06:10:30.151Z,14.20
2023-03-05T06:13:11.780Z,12.40
2023-03-05T06:15:45.762Z,15.80
2023-03-05T06:18:19.838Z,14.00
2023-03-05T06:21:15.800Z,17.00
2023-03-05T06:23:50.457Z,15.20
2023-03-05T06:26:25.332Z,15.20
2023-03-05T06:28:59.418Z,13.60
2023-03-05T06:31:35.052Z,11.50
2023-03-05T06:34:10.252Z,16.00
2023-03-05T06:36:54.579Z,18.70
2023-03-05T06:39:28.415Z,17.80
2023-03-05T06:42:04.709Z,13.40
2023-03-05T06:44:48.364Z,13.20
2023-03-05T06:47:22.414Z,14.10
2023-03-05T06:49:56.288Z,15.70
2023-03-05T06:52:30.068Z,13.40
2023-03-05T06:55:07.872Z,15.30
2023-03-05T06:57:41.536Z,16.90
2023-03-05T07:00:17.349Z,16.40
2023-03-05T07:02:51.664Z,13.60
2023-03-05T07:05:25.356Z,13.70
2023-03-05T07:07:59.160Z,13.60
2023-03-05T07:10:32.480Z,14.80
2023-03-05T07:13:06.305Z,14.30
2023-03-05T07:15:42.441Z,14.90
2023-03-05T07:18:16.230Z,16.70
2023-03-05T07:20:49.865Z,13.90
2023-03-05T07:23:23.848Z,11.90
2023-03-05T07:25:57.534Z,17.60
2023-03-05T07:28:31.232Z,14.50
2023-03-05T07:31:07.317Z,13.00
2023-03-05T07:33:41.303Z,14.70
2023-03-05T07:36:15.820Z,13.20
2023-03-05T07:38:49.542Z,12.70
2023-03-05T07:41:24.019Z,12.90
2023-03-05T07:43:58.211Z,11.90
2023-03-05T07:46:33.580Z,11.70
2023-03-05T07:49:07.271Z,11.60
2023-03-05T07:51:41.848Z,12.10
2023-03-05T07:54:15.472Z,14.00
2023-03-05T07:56:49.272Z,15.90
2023-03-05T07:59:22.649Z,13.70
2023-03-05T08:01:56.529Z,14.30
2023-03-05T08:04:32.220Z,13.90
2023-03-05T08:07:06.741Z,13.70
2023-03-05T08:09:40.448Z,13.60
2023-03-05T08:12:14.342Z,13.90
2023-03-05T08:14:48.544Z,12.80
2023-03-05T08:17:22.505Z,17.40
2023-03-05T08:20:00.230Z,14.60
2023-03-05T08:22:36.301Z,13.40
2023-03-05T08:25:11.389Z,14.10
2023-03-05T08:27:47.412Z,16.70
2023-03-05T08:30:27.859Z,13.80
2023-03-05T08:33:01.737Z,19.80
2023-03-05T08:35:35.745Z,13.80
2023-03-05T08:38:09.524Z,18.00
2023-03-05T08:40:47.001Z,14.40
2023-03-05T08:43:20.730Z,17.40
2023-03-05T08:45:55.121Z,13.80
2023-03-05T08:48:29.348Z,17.70
2023-03-05T08:51:08.745Z,13.10
2023-03-05T08:53:43.085Z,14.80
2023-03-05T08:56:17.182Z,14.30
2023-03-05T08:58:52.835Z,16.40
2023-03-05T09:01:28.153Z,18.60
2023-03-05T09:04:02.725Z,16.20
2023-03-05T09:06:39.729Z,19.40
2023-03-05T09:09:14.628Z,14.50
2023-03-05T09:11:48.422Z,15.60
2023-03-05T09:14:22.575Z,15.70
2023-03-05T09:16:56.498Z,19.90
2023-03-05T09:19:30.660Z,17.90
2023-03-05T09:22:04.570Z,15.20
2023-03-05T09:24:38.547Z,15.70
2023-03-05T09:27:12.819Z,15.60
2023-03-05T09:29:46.307Z,16.50
2023-03-05T09:32:20.349Z,18.00
2023-03-05T09:34:53.924Z,15.00
2023-03-05T09:37:28.291Z,17.80
2023-03-05T09:40:02.111Z,18.20
2023-03-05T09:42:55.540Z,16.90
2023-03-05T09:45:32.230Z,17.50
2023-03-05T09:48:15.577Z,20.30
2023-03-05T09:50:54.990Z,17.80
2023-03-05T09:53:39.113Z,20.70
2023-03-05T09:56:17.276Z,17.90
2023-03-05T09:58:56.163Z,19.50
2023-03-05T10:01:35.081Z,19.60
2023-03-05T10:04:16.513Z,18.90
2023-03-05T10:06:55.078Z,17.30
2023-03-05T10:12:23.689Z,15.90
2023-03-05T10:14:58.324Z,18.30
2023-03-05T10:17:57.376Z,19.30
2023-03-05T10:20:50.476Z,20.40
2023-03-05T10:23:35.715Z,18.50
2023-03-05T10:26:29.098Z,20.80
2023-03-05T10:29:15.174Z,21.00
2023-03-05T10:31:58.142Z,21.10
2023-03-05T10:35:05.292Z,19.40
2023-03-05T10:38:12.109Z,19.70
2023-03-05T10:40:56.252Z,21.70
2023-03-05T10:43:38.490Z,19.80
2023-03-05T10:46:18.998Z,21.30
2023-03-05T10:48:59.026Z,22.10
2023-03-05T10:51:41.370Z,20.20
2023-03-05T10:54:21.232Z,15.70
2023-03-05T10:57:07.058Z,16.80
2023-03-05T10:59:41.108Z,16.50
2023-03-05T11:02:17.074Z,14.30
2023-03-05T11:04:52.137Z,15.40
2023-03-05T11:07:43.011Z,12.20
2023-03-05T11:10:22.960Z,9.90
2023-03-05T11:12:58.352Z,9.50
2023-03-05T11:15:35.241Z,7.90
2023-03-05T11:18:25.751Z,9.60
2023-03-05T11:21:13.457Z,9.70
2023-03-05T11:24:05.584Z,10.30
2023-03-05T11:26:47.655Z,10.60
2023-03-05T11:29:26.139Z,11.40
2023-03-05T11:32:17.971Z,14.30
2023-03-05T11:34:54.263Z,11.70
2023-03-05T11:37:31.506Z,17.70
2023-03-05T11:40:24.962Z,14.40
2023-03-05T11:43:03.233Z,15.80
2023-03-05T11:45:40.646Z,17.70
2023-03-05T11:48:22.085Z,15.50
2023-03-05T11:51:01.432Z,18.10
2023-03-05T11:53:37.975Z,17.20
2023-03-05T11:56:27.643Z,17.90
2023-03-05T11:59:07.078Z,18.40
2023-03-05T12:01:48.437Z,14.50
2023-03-05T12:04:23.926Z,12.70
2023-03-05T12:07:02.153Z,14.10
2023-03-05T12:09:44.206Z,12.50
2023-03-05T12:12:36.591Z,12.30
2023-03-05T12:15:37.242Z,11.50
2023-03-05T12:18:28.502Z,11.00
2023-03-05T12:21:08.707Z,12.30
2023-03-05T12:24:01.952Z,11.70
2023-03-05T12:27:09.706Z,12.60
2023-03-05T12:29:46.116Z,13.00
2023-03-05T12:32:59.742Z,15.80
2023-03-05T12:35:39.609Z,13.20
2023-03-05T12:38:33.022Z,12.90
2023-03-05T12:41:37.953Z,13.00
2023-03-05T12:44:28.792Z,11.30
2023-03-05T12:47:23.973Z,10.60
2023-03-05T12:50:04.609Z,14.00
2023-03-05T12:52:47.162Z,13.10
2023-03-05T12:55:24.765Z,14.60
2023-03-05T12:58:05.282Z,13.00
2023-03-05T13:00:46.428Z,12.00
2023-03-05T13:03:26.038Z,10.90
2023-03-05T13:06:05.678Z,12.40
2023-03-05T13:08:45.048Z,14.90
2023-03-05T13:11:25.821Z,10.80
2023-03-05T13:14:04.991Z,10.70
2023-03-05T13:16:44.958Z,9.30
2023-03-05T13:19:23.027Z,10.90
2023-03-05T13:22:06.830Z,8.60
2023-03-05T13:24:44.062Z,9.00
2023-03-05T13:27:34.896Z,8.80
2023-03-05T13:30:25.794Z,9.00
2023-03-05T13:33:06.082Z,11.50
2023-03-05T13:35:52.305Z,10.20
2023-03-05T13:38:34.698Z,9.80
2023-03-05T13:41:25.992Z,8.50
2023-03-05T13:44:04.789Z,10.00
2023-03-05T13:46:43.016Z,8.20
2023-03-05T13:49:31.580Z,8.60
2023-03-05T13:52:12.209Z,10.50
2023-03-05T13:54:48.715Z,9.90
2023-03-05T13:57:46.833Z,9.50
2023-03-05T14:00:36.498Z,8.80
2023-03-05T14:03:27.061Z,9.60
2023-03-05T14:06:13.050Z,11.40
2023-03-05T14:08:59.368Z,9.60
2023-03-05T14:11:36.938Z,10.70
2023-03-05T14:14:21.821Z,13.20
2023-03-05T14:16:58.907Z,11.70
2023-03-05T14:19:41.550Z,11.70
2023-03-05T14:22:34.679Z,12.90
2023-03-05T14:25:25.659Z,13.20
2023-03-05T14:28:03.593Z,12.20
2023-03-05T14:30:48.423Z,13.60
2023-03-05T14:33:37.813Z,13.50
2023-03-05T14:36:23.849Z,14.70
2023-03-05T14:39:00.936Z,11.00
2023-03-05T14:41:45.744Z,11.10
2023-03-05T14:44:27.503Z,12.70
2023-03-05T14:47:04.117Z,13.80
2023-03-05T14:49:46.730Z,12.20
2023-03-05T14:52:27.748Z,12.30
2023-03-05T14:55:08.523Z,11.70
2023-03-05T14:57:44.785Z,14.80
2023-03-05T15:00:25.926Z,14.90
2023-03-05T15:03:06.744Z,13.80
2023-03-05T15:05:43.896Z,9.80
2023-03-05T15:08:23.776Z,12.00
2023-03-05T15:11:11.293Z,13.80
2023-03-05T15:13:47.309Z,12.20
2023-03-05T15:16:23.900Z,13.90
2023-03-05T15:19:07.500Z,10.60
2023-03-05T15:21:44.078Z,13.30
2023-03-05T15:24:20.336Z,13.70
2023-03-05T15:26:59.420Z,15.90
2023-03-05T15:29:35.761Z,15.60
2023-03-05T15:32:17.323Z,17.10
2023-03-05T15:34:52.902Z,14.40
2023-03-05T15:37:31.877Z,12.30
2023-03-05T15:40:12.366Z,13.60
2023-03-05T15:42:48.753Z,13.10
2023-03-05T15:45:26.168Z,13.80
2023-03-05T15:48:05.148Z,12.00
2023-03-05T15:50:43.271Z,12.10
2023-03-05T15:55:59.603Z,12.40
2023-03-05T16:01:14.485Z,13.20
2023-03-05T16:03:50.994Z,13.80
2023-03-05T16:06:30.988Z,16.80
2023-03-05T16:09:10.409Z,15.30
2023-03-05T16:11:50.040Z,16.30
2023-03-05T16:14:34.743Z,16.50
2023-03-05T16:17:19.949Z,17.20
2023-03-05T16:19:59.589Z,20.20
2023-03-05T16:22:38.404Z,17.60
2023-03-05T16:25:17.226Z,17.10
2023-03-05T16:27:58.347Z,15.60
2023-03-05T16:30:36.430Z,19.30
2023-03-05T16:33:17.791Z,22.70
2023-03-05T16:36:15.304Z,18.40
2023-03-05T16:38:53.035Z,18.10
2023-03-05T16:41:31.961Z,21.10
2023-03-05T16:44:10.434Z,19.30
2023-03-05T16:49:28.695Z,17.60
2023-03-05T16:52:17.708Z,20.10
2023-03-05T16:55:00.829Z,16.20
2023-03-05T16:57:41.152Z,20.20
2023-03-05T17:00:26.101Z,20.40
2023-03-05T17:03:03.509Z,19.20
2023-03-05T17:05:45.266Z,20.20
2023-03-05T17:08:21.781Z,16.70
2023-03-05T17:11:00.267Z,20.70
2023-03-05T17:13:37.622Z,17.40
2023-03-05T17:16:18.622Z,19.40
2023-03-05T17:19:09.832Z,19.40
2023-03-05T17:21:52.095Z,20.60
2023-03-05T17:24:31.407Z,23.30
2023-03-05T17:27:08.397Z,23.70
2023-03-05T17:29:47.677Z,23.90
2023-03-05T17:35:07.792Z,22.40
2023-03-05T17:37:44.926Z,23.40
2023-03-05T17:40:24.280Z,23.40
2023-03-05T17:43:05.999Z,22.30
2023-03-05T17:45:57.619Z,24.30
2023-03-05T17:48:40.407Z,23.50
2023-03-05T17:51:22.755Z,23.30
2023-03-05T17:54:00.143Z,28.40
2023-03-05T17:56:48.433Z,23.80
2023-03-05T17:59:29.123Z,24.40
2023-03-05T18:02:11.639Z,28.50
2023-03-05T18:04:53.673Z,28.80
2023-03-05T18:07:34.610Z,28.20
2023-03-05T18:10:14.651Z,27.70
2023-03-05T18:12:55.847Z,27.00
2023-03-05T18:15:34.048Z,26.80
2023-03-05T18:18:16.151Z,30.40
2023-03-05T18:20:55.772Z,23.10
2023-03-05T18:23:32.796Z,25.80
2023-03-05T18:26:19.214Z,31.60
2023-03-05T18:28:56.826Z,26.50
2023-03-05T18:31:34.246Z,22.40
2023-03-05T18:34:20.322Z,27.80
2023-03-05T18:36:56.664Z,27.20
2023-03-05T18:39:36.734Z,25.50
2023-03-05T18:42:19.783Z,24.70
2023-03-05T18:45:00.336Z,24.50
2023-03-05T18:47:37.482Z,24.50
2023-03-05T18:50:19.764Z,23.90
2023-03-05T18:52:59.848Z,29.90
2023-03-05T18:55:37.850Z,26.10
2023-03-05T18:58:16.252Z,29.60
2023-03-05T19:00:53.880Z,25.50
2023-03-05T19:03:31.741Z,29.80
2023-03-05T19:08:58.991Z,26.90
2023-03-05T19:11:40.331Z,24.00
2023-03-05T19:17:00.672Z,30.80
2023-03-05T19:19:39.305Z,28.20
2023-03-05T19:22:22.568Z,27.80
2023-03-05T19:25:02.959Z,29.00
2023-03-05T19:27:41.365Z,29.30
2023-03-05T19:30:23.929Z,29.00
2023-03-05T19:33:05.717Z,28.70
2023-03-05T19:35:44.244Z,32.10
2023-03-05T19:38:22.324Z,29.90
2023-03-05T19:40:59.758Z,30.70
2023-03-05T19:43:38.956Z,31.70
2023-03-05T19:46:21.154Z,29.70
2023-03-05T19:48:59.654Z,27.80
2023-03-05T19:51:38.815Z,30.60
2023-03-05T19:54:22.016Z,31.50
2023-03-05T19:57:00.391Z,33.10
2023-03-05T19:59:38.307Z,31.20
2023-03-05T20:02:20.698Z,25.50
2023-03-05T20:05:09.409Z,29.40
2023-03-05T20:07:48.666Z,35.10
2023-03-05T20:10:27.499Z,32.60
2023-03-05T20:13:11.146Z,27.30
2023-03-05T20:15:51.326Z,27.80
2023-03-05T20:18:30.614Z,31.70
2023-03-05T20:21:10.630Z,28.20
2023-03-05T20:23:49.377Z,29.60
2023-03-05T20:26:39.910Z,30.40
2023-03-05T20:29:18.388Z,28.70
2023-03-05T20:31:58.033Z,29.50
2023-03-05T20:34:36.436Z,30.50
2023-03-05T20:37:15.000Z,26.00
2023-03-05T20:39:54.946Z,25.30
2023-03-05T20:42:32.334Z,28.70
2023-03-05T20:45:10.151Z,27.80
2023-03-05T20:47:49.829Z,26.70
2023-03-05T20:50:27.420Z,26.20
2023-03-05T20:53:06.155Z,28.50
2023-03-05T20:55:42.399Z,25.50
2023-03-05T20:58:18.710Z,25.90
2023-03-05T21:00:55.787Z,27.40
2023-03-05T21:03:35.486Z,26.50
2023-03-05T21:06:13.968Z,25.10
2023-03-05T21:11:30.801Z,27.00
2023-03-05T21:17:00.787Z,27.00
2023-03-05T21:19:39.467Z,30.10
2023-03-05T21:22:14.712Z,25.90
2023-03-05T21:25:03.666Z,32.40
2023-03-05T21:27:41.394Z,29.20
2023-03-05T21:30:18.351Z,26.20
2023-03-05T21:32:53.168Z,24.80
2023-03-05T21:35:30.854Z,29.30
2023-03-05T21:38:11.232Z,29.70
2023-03-05T21:40:50.358Z,26.60
2023-03-05T21:43:25.902Z,29.90
2023-03-05T21:46:05.059Z,29.30
2023-03-05T21:48:40.288Z,24.80
2023-03-05T21:51:14.524Z,27.10
2023-03-05T21:53:49.193Z,28.80
2023-03-05T21:56:26.068Z,32.00
2023-03-05T21:59:01.015Z,30.50
2023-03-05T22:01:34.720Z,31.30
2023-03-05T22:04:08.782Z,28.30
2023-03-05T22:06:42.428Z,30.70
2023-03-05T22:09:15.957Z,30.30
2023-03-05T22:11:49.545Z,31.30
2023-03-05T22:14:23.113Z,34.70
2023-03-05T22:17:02.149Z,33.00
2023-03-05T22:19:36.408Z,34.70
2023-03-05T22:22:10.155Z,33.60
2023-03-05T22:24:44.095Z,34.30
2023-03-05T22:27:17.624Z,30.80
2023-03-05T22:29:51.404Z,38.10
2023-03-05T22:32:25.539Z,38.80
2023-03-05T22:35:00.432Z,37.80
2023-03-05T22:37:34.978Z,35.60
2023-03-05T22:40:11.529Z,38.90
2023-03-05T22:42:45.862Z,40.50
2023-03-05T22:45:21.143Z,32.10
2023-03-05T22:47:54.940Z,36.00
2023-03-05T22:50:29.014Z,37.60
2023-03-05T22:53:03.985Z,32.40
2023-03-05T22:55:39.426Z,34.30
2023-03-05T22:58:13.776Z,35.60
2023-03-05T23:00:49.059Z,36.00
2023-03-05T23:03:22.703Z,31.80
2023-03-05T23:05:56.674Z,38.70
2023-03-05T23:08:30.321Z,35.10
2023-03-05T23:11:09.300Z,36.70
2023-03-05T23:13:43.780Z,32.40
2023-03-05T23:16:17.742Z,35.80
2023-03-05T23:18:51.684Z,35.10
2023-03-05T23:21:25.497Z,36.40
2023-03-05T23:23:59.175Z,32.80
2023-03-05T23:26:32.716Z,35.80
2023-03-05T23:29:07.129Z,36.30
2023-03-05T23:31:40.847Z,34.00
2023-03-05T23:34:14.778Z,35.50
2023-03-05T23:36:48.722Z,36.40
2023-03-05T23:39:22.630Z,39.50
2023-03-05T23:41:56.360Z,32.10
2023-03-05T23:44:29.800Z,36.90
2023-03-05T23:47:03.814Z,34.20
2023-03-05T23:49:37.440Z,33.80
2023-03-05T23:52:11.181Z,36.40
2023-03-05T23:54:44.728Z,32.90
2023-03-05T23:57:18.489Z,34.90
2023-03-05T23:59:52.116Z,35.20
